sensor_id;sensor_type;location;lat;lon;timestamp;P1;durP1;ratioP1;P2;durP2;ratioP2
44832;SDS011;30569;51.252;9.830;2023-05-10T00:00:20;4.65;;;2.13;;
44832;SDS011;30569;51.252;9.830;2023-05-10T00:02:47;10.00;;;3.17;;
44832;SDS011;30569;51.252;9.830;2023-05-10T00:05:13;5.20;;;2.40;;
44832;SDS011;30569;51.252;9.830;2023-05-10T00:07:39;6.38;;;2.25;;
44832;SDS011;30569;51.252;9.830;2023-05-10T00:10:04;4.47;;;2.40;;
44832;SDS011;30569;51.252;9.830;2023-05-10T00:12:30;4.60;;;2.40;;
44832;SDS011;30569;51.252;9.830;2023-05-10T00:14:56;6.35;;;3.03;;
44832;SDS011;30569;51.252;9.830;2023-05-10T00:17:21;5.50;;;3.17;;
44832;SDS011;30569;51.252;9.830;2023-05-10T00:19:47;6.07;;;2.88;;
44832;SDS011;30569;51.252;9.830;2023-05-10T00:22:13;7.57;;;3.28;;
44832;SDS011;30569;51.252;9.830;2023-05-10T00:24:38;8.13;;;3.00;;
44832;SDS011;30569;51.252;9.830;2023-05-10T00:27:04;6.65;;;3.30;;
44832;SDS011;30569;51.252;9.830;2023-05-10T00:29:30;5.25;;;3.15;;
44832;SDS011;30569;51.252;9.830;2023-05-10T00:31:56;7.32;;;3.28;;
44832;SDS011;30569;51.252;9.830;2023-05-10T00:34:22;5.22;;;2.92;;
44832;SDS011;30569;51.252;9.830;2023-05-10T00:36:47;5.03;;;3.15;;
44832;SDS011;30569;51.252;9.830;2023-05-10T00:39:13;6.47;;;3.60;;
44832;SDS011;30569;51.252;9.830;2023-05-10T00:41:38;7.15;;;3.17;;
44832;SDS011;30569;51.252;9.830;2023-05-10T00:44:04;5.45;;;2.95;;
44832;SDS011;30569;51.252;9.830;2023-05-10T00:46:30;5.50;;;3.50;;
44832;SDS011;30569;51.252;9.830;2023-05-10T00:48:56;8.07;;;3.28;;
44832;SDS011;30569;51.252;9.830;2023-05-10T00:51:22;6.60;;;3.40;;
44832;SDS011;30569;51.252;9.830;2023-05-10T00:53:48;6.20;;;3.70;;
44832;SDS011;30569;51.252;9.830;2023-05-10T00:56:14;7.70;;;3.45;;
44832;SDS011;30569;51.252;9.830;2023-05-10T00:58:40;8.13;;;3.55;;
44832;SDS011;30569;51.252;9.830;2023-05-10T01:01:06;4.88;;;2.90;;
44832;SDS011;30569;51.252;9.830;2023-05-10T01:03:34;5.90;;;3.13;;
44832;SDS011;30569;51.252;9.830;2023-05-10T01:06:00;7.05;;;3.40;;
44832;SDS011;30569;51.252;9.830;2023-05-10T01:08:26;5.82;;;3.38;;
44832;SDS011;30569;51.252;9.830;2023-05-10T01:10:52;6.45;;;3.38;;
44832;SDS011;30569;51.252;9.830;2023-05-10T01:13:29;7.68;;;4.47;;
44832;SDS011;30569;51.252;9.830;2023-05-10T01:15:57;8.10;;;5.10;;
44832;SDS011;30569;51.252;9.830;2023-05-10T01:18:26;8.18;;;5.88;;
44832;SDS011;30569;51.252;9.830;2023-05-10T01:21:01;6.50;;;4.97;;
44832;SDS011;30569;51.252;9.830;2023-05-10T01:32:30;9.50;;;5.22;;
44832;SDS011;30569;51.252;9.830;2023-05-10T01:35:16;8.32;;;4.75;;
44832;SDS011;30569;51.252;9.830;2023-05-10T01:37:46;6.53;;;4.80;;
44832;SDS011;30569;51.252;9.830;2023-05-10T01:41:06;7.95;;;5.50;;
44832;SDS011;30569;51.252;9.830;2023-05-10T01:43:15;7.20;;;5.07;;
44832;SDS011;30569;51.252;9.830;2023-05-10T01:45:49;7.72;;;5.40;;
44832;SDS011;30569;51.252;9.830;2023-05-10T01:48:23;12.40;;;5.70;;
44832;SDS011;30569;51.252;9.830;2023-05-10T01:50:52;6.65;;;4.60;;
44832;SDS011;30569;51.252;9.830;2023-05-10T01:53:19;7.53;;;5.28;;
44832;SDS011;30569;51.252;9.830;2023-05-10T01:55:46;10.93;;;4.43;;
44832;SDS011;30569;51.252;9.830;2023-05-10T01:58:20;6.15;;;4.50;;
44832;SDS011;30569;51.252;9.830;2023-05-10T02:00:49;6.93;;;4.72;;
44832;SDS011;30569;51.252;9.830;2023-05-10T02:03:17;7.90;;;4.43;;
44832;SDS011;30569;51.252;9.830;2023-05-10T02:05:46;7.05;;;5.10;;
44832;SDS011;30569;51.252;9.830;2023-05-10T02:08:14;7.30;;;4.75;;
44832;SDS011;30569;51.252;9.830;2023-05-10T02:10:42;7.88;;;4.68;;
44832;SDS011;30569;51.252;9.830;2023-05-10T02:13:09;7.15;;;4.60;;
44832;SDS011;30569;51.252;9.830;2023-05-10T02:15:36;7.22;;;5.00;;
44832;SDS011;30569;51.252;9.830;2023-05-10T02:18:03;7.40;;;4.85;;
44832;SDS011;30569;51.252;9.830;2023-05-10T02:20:30;7.10;;;5.07;;
44832;SDS011;30569;51.252;9.830;2023-05-10T02:22:57;6.70;;;4.90;;
44832;SDS011;30569;51.252;9.830;2023-05-10T02:25:24;8.00;;;5.32;;
44832;SDS011;30569;51.252;9.830;2023-05-10T02:27:51;7.65;;;5.18;;
44832;SDS011;30569;51.252;9.830;2023-05-10T02:30:20;7.57;;;4.85;;
44832;SDS011;30569;51.252;9.830;2023-05-10T02:32:47;7.80;;;4.85;;
44832;SDS011;30569;51.252;9.830;2023-05-10T02:35:14;8.38;;;4.72;;
44832;SDS011;30569;51.252;9.830;2023-05-10T02:37:41;8.95;;;3.58;;
44832;SDS011;30569;51.252;9.830;2023-05-10T02:40:08;4.00;;;2.13;;
44832;SDS011;30569;51.252;9.830;2023-05-10T02:42:36;3.95;;;2.20;;
44832;SDS011;30569;51.252;9.830;2023-05-10T02:45:05;4.40;;;1.95;;
44832;SDS011;30569;51.252;9.830;2023-05-10T02:47:35;3.47;;;1.63;;
44832;SDS011;30569;51.252;9.830;2023-05-10T02:50:00;3.60;;;1.70;;
44832;SDS011;30569;51.252;9.830;2023-05-10T02:52:27;3.58;;;1.92;;
44832;SDS011;30569;51.252;9.830;2023-05-10T02:54:58;4.43;;;2.35;;
44832;SDS011;30569;51.252;9.830;2023-05-10T02:57:31;4.47;;;2.50;;
44832;SDS011;30569;51.252;9.830;2023-05-10T02:59:58;4.57;;;2.63;;
44832;SDS011;30569;51.252;9.830;2023-05-10T03:02:25;5.70;;;2.47;;
44832;SDS011;30569;51.252;9.830;2023-05-10T03:04:51;4.00;;;2.20;;
44832;SDS011;30569;51.252;9.830;2023-05-10T03:07:17;4.45;;;2.30;;
44832;SDS011;30569;51.252;9.830;2023-05-10T03:09:46;5.15;;;2.08;;
44832;SDS011;30569;51.252;9.830;2023-05-10T03:12:18;4.00;;;1.95;;
44832;SDS011;30569;51.252;9.830;2023-05-10T03:15:11;4.90;;;2.33;;
44832;SDS011;30569;51.252;9.830;2023-05-10T03:20:33;4.40;;;2.20;;
44832;SDS011;30569;51.252;9.830;2023-05-10T03:23:12;4.03;;;2.30;;
44832;SDS011;30569;51.252;9.830;2023-05-10T03:25:43;4.93;;;2.40;;
44832;SDS011;30569;51.252;9.830;2023-05-10T03:28:12;4.40;;;2.35;;
44832;SDS011;30569;51.252;9.830;2023-05-10T03:30:39;6.30;;;3.78;;
44832;SDS011;30569;51.252;9.830;2023-05-10T03:33:06;6.85;;;3.90;;
44832;SDS011;30569;51.252;9.830;2023-05-10T03:35:32;6.68;;;3.70;;
44832;SDS011;30569;51.252;9.830;2023-05-10T03:37:58;7.68;;;4.10;;
44832;SDS011;30569;51.252;9.830;2023-05-10T03:40:23;6.03;;;3.92;;
44832;SDS011;30569;51.252;9.830;2023-05-10T03:42:50;6.82;;;4.03;;
44832;SDS011;30569;51.252;9.830;2023-05-10T03:45:16;6.70;;;4.05;;
44832;SDS011;30569;51.252;9.830;2023-05-10T03:47:41;6.57;;;3.97;;
44832;SDS011;30569;51.252;9.830;2023-05-10T03:50:07;8.65;;;4.10;;
44832;SDS011;30569;51.252;9.830;2023-05-10T03:52:33;7.03;;;4.95;;
44832;SDS011;30569;51.252;9.830;2023-05-10T03:54:58;6.30;;;4.00;;
44832;SDS011;30569;51.252;9.830;2023-05-10T03:57:24;6.65;;;3.88;;
44832;SDS011;30569;51.252;9.830;2023-05-10T03:59:49;6.93;;;4.30;;
44832;SDS011;30569;51.252;9.830;2023-05-10T04:02:15;7.40;;;4.45;;
44832;SDS011;30569;51.252;9.830;2023-05-10T04:04:41;7.13;;;4.35;;
44832;SDS011;30569;51.252;9.830;2023-05-10T04:07:07;6.18;;;2.90;;
44832;SDS011;30569;51.252;9.830;2023-05-10T04:09:32;4.30;;;2.50;;
44832;SDS011;30569;51.252;9.830;2023-05-10T04:11:58;2.38;;;1.10;;
44832;SDS011;30569;51.252;9.830;2023-05-10T04:14:25;3.47;;;1.30;;
44832;SDS011;30569;51.252;9.830;2023-05-10T04:16:50;3.35;;;0.90;;
44832;SDS011;30569;51.252;9.830;2023-05-10T04:19:16;2.88;;;1.20;;
44832;SDS011;30569;51.252;9.830;2023-05-10T04:21:41;2.20;;;0.90;;
44832;SDS011;30569;51.252;9.830;2023-05-10T04:24:07;1.70;;;0.88;;
44832;SDS011;30569;51.252;9.830;2023-05-10T04:26:33;2.92;;;1.20;;
44832;SDS011;30569;51.252;9.830;2023-05-10T04:28:58;2.80;;;1.15;;
44832;SDS011;30569;51.252;9.830;2023-05-10T04:31:24;3.35;;;1.00;;
44832;SDS011;30569;51.252;9.830;2023-05-10T04:33:50;2.72;;;1.10;;
44832;SDS011;30569;51.252;9.830;2023-05-10T04:36:16;4.30;;;1.20;;
44832;SDS011;30569;51.252;9.830;2023-05-10T04:38:41;2.03;;;0.93;;
44832;SDS011;30569;51.252;9.830;2023-05-10T04:41:08;2.75;;;1.00;;
44832;SDS011;30569;51.252;9.830;2023-05-10T04:43:35;3.10;;;1.10;;
44832;SDS011;30569;51.252;9.830;2023-05-10T04:46:01;3.03;;;1.20;;
44832;SDS011;30569;51.252;9.830;2023-05-10T04:48:27;2.47;;;1.20;;
44832;SDS011;30569;51.252;9.830;2023-05-10T04:50:52;2.83;;;1.17;;
44832;SDS011;30569;51.252;9.830;2023-05-10T04:53:18;3.40;;;1.30;;
44832;SDS011;30569;51.252;9.830;2023-05-10T04:55:43;4.78;;;1.40;;
44832;SDS011;30569;51.252;9.830;2023-05-10T04:58:09;12.80;;;7.90;;
44832;SDS011;30569;51.252;9.830;2023-05-10T05:00:34;18.85;;;11.40;;
44832;SDS011;30569;51.252;9.830;2023-05-10T05:03:00;14.73;;;9.30;;
44832;SDS011;30569;51.252;9.830;2023-05-10T05:05:26;11.48;;;6.20;;
44832;SDS011;30569;51.252;9.830;2023-05-10T05:07:51;4.18;;;2.28;;
44832;SDS011;30569;51.252;9.830;2023-05-10T05:10:17;3.15;;;1.50;;
44832;SDS011;30569;51.252;9.830;2023-05-10T05:12:43;3.80;;;1.67;;
44832;SDS011;30569;51.252;9.830;2023-05-10T05:15:09;3.55;;;1.33;;
44832;SDS011;30569;51.252;9.830;2023-05-10T05:17:35;4.38;;;1.40;;
44832;SDS011;30569;51.252;9.830;2023-05-10T05:20:01;5.95;;;1.65;;
44832;SDS011;30569;51.252;9.830;2023-05-10T05:22:28;4.97;;;1.23;;
44832;SDS011;30569;51.252;9.830;2023-05-10T05:24:54;2.15;;;0.98;;
44832;SDS011;30569;51.252;9.830;2023-05-10T05:27:20;2.42;;;1.08;;
44832;SDS011;30569;51.252;9.830;2023-05-10T05:29:49;3.50;;;1.10;;
44832;SDS011;30569;51.252;9.830;2023-05-10T05:32:15;2.47;;;1.10;;
44832;SDS011;30569;51.252;9.830;2023-05-10T05:34:41;2.47;;;1.10;;
44832;SDS011;30569;51.252;9.830;2023-05-10T05:37:07;2.40;;;1.10;;
44832;SDS011;30569;51.252;9.830;2023-05-10T05:39:32;5.43;;;1.10;;
44832;SDS011;30569;51.252;9.830;2023-05-10T05:41:58;2.65;;;1.17;;
44832;SDS011;30569;51.252;9.830;2023-05-10T05:44:24;2.22;;;1.10;;
44832;SDS011;30569;51.252;9.830;2023-05-10T05:46:50;7.05;;;1.15;;
44832;SDS011;30569;51.252;9.830;2023-05-10T05:49:15;3.05;;;1.40;;
44832;SDS011;30569;51.252;9.830;2023-05-10T05:51:41;2.75;;;1.10;;
44832;SDS011;30569;51.252;9.830;2023-05-10T05:54:08;3.28;;;1.10;;
44832;SDS011;30569;51.252;9.830;2023-05-10T05:56:33;4.53;;;1.27;;
44832;SDS011;30569;51.252;9.830;2023-05-10T05:58:59;2.80;;;1.27;;
44832;SDS011;30569;51.252;9.830;2023-05-10T06:01:25;3.20;;;1.30;;
44832;SDS011;30569;51.252;9.830;2023-05-10T06:03:51;4.07;;;1.30;;
44832;SDS011;30569;51.252;9.830;2023-05-10T06:06:17;2.42;;;1.10;;
44832;SDS011;30569;51.252;9.830;2023-05-10T06:08:43;3.55;;;1.00;;
44832;SDS011;30569;51.252;9.830;2023-05-10T06:11:09;2.40;;;1.00;;
44832;SDS011;30569;51.252;9.830;2023-05-10T06:13:35;2.10;;;0.98;;
44832;SDS011;30569;51.252;9.830;2023-05-10T06:16:02;4.38;;;0.88;;
44832;SDS011;30569;51.252;9.830;2023-05-10T06:18:27;2.33;;;0.80;;
44832;SDS011;30569;51.252;9.830;2023-05-10T06:20:53;1.33;;;0.70;;
44832;SDS011;30569;51.252;9.830;2023-05-10T06:23:19;1.48;;;0.70;;
44832;SDS011;30569;51.252;9.830;2023-05-10T06:25:45;1.52;;;0.73;;
44832;SDS011;30569;51.252;9.830;2023-05-10T06:28:11;1.42;;;0.73;;
44832;SDS011;30569;51.252;9.830;2023-05-10T06:30:37;1.63;;;0.85;;
44832;SDS011;30569;51.252;9.830;2023-05-10T06:33:03;2.00;;;0.90;;
44832;SDS011;30569;51.252;9.830;2023-05-10T06:35:29;1.70;;;0.80;;
44832;SDS011;30569;51.252;9.830;2023-05-10T06:37:58;1.92;;;0.80;;
44832;SDS011;30569;51.252;9.830;2023-05-10T06:40:24;1.45;;;0.70;;
44832;SDS011;30569;51.252;9.830;2023-05-10T06:42:50;2.63;;;0.70;;
44832;SDS011;30569;51.252;9.830;2023-05-10T06:45:16;1.85;;;0.80;;
44832;SDS011;30569;51.252;9.830;2023-05-10T06:47:41;1.02;;;0.68;;
44832;SDS011;30569;51.252;9.830;2023-05-10T06:50:08;1.20;;;0.70;;
44832;SDS011;30569;51.252;9.830;2023-05-10T06:52:34;1.17;;;0.70;;
44832;SDS011;30569;51.252;9.830;2023-05-10T06:55:00;1.00;;;0.60;;
44832;SDS011;30569;51.252;9.830;2023-05-10T06:57:25;1.65;;;0.80;;
44832;SDS011;30569;51.252;9.830;2023-05-10T06:59:51;1.05;;;0.63;;
44832;SDS011;30569;51.252;9.830;2023-05-10T07:02:17;1.83;;;0.70;;
44832;SDS011;30569;51.252;9.830;2023-05-10T07:04:43;1.42;;;0.70;;
44832;SDS011;30569;51.252;9.830;2023-05-10T07:07:09;0.95;;;0.68;;
44832;SDS011;30569;51.252;9.830;2023-05-10T07:09:35;2.17;;;1.23;;
44832;SDS011;30569;51.252;9.830;2023-05-10T07:12:01;0.98;;;0.70;;
44832;SDS011;30569;51.252;9.830;2023-05-10T07:14:27;3.10;;;0.70;;
44832;SDS011;30569;51.252;9.830;2023-05-10T07:16:53;4.07;;;0.90;;
44832;SDS011;30569;51.252;9.830;2023-05-10T07:19:19;1.98;;;0.90;;
44832;SDS011;30569;51.252;9.830;2023-05-10T07:21:45;2.25;;;0.90;;
44832;SDS011;30569;51.252;9.830;2023-05-10T07:24:10;2.13;;;0.90;;
44832;SDS011;30569;51.252;9.830;2023-05-10T07:26:36;2.75;;;0.90;;
44832;SDS011;30569;51.252;9.830;2023-05-10T07:29:02;1.70;;;0.90;;
44832;SDS011;30569;51.252;9.830;2023-05-10T07:31:28;1.50;;;0.85;;
44832;SDS011;30569;51.252;9.830;2023-05-10T07:33:54;2.50;;;1.00;;
44832;SDS011;30569;51.252;9.830;2023-05-10T07:36:20;2.97;;;0.90;;
44832;SDS011;30569;51.252;9.830;2023-05-10T07:38:46;2.17;;;0.80;;
44832;SDS011;30569;51.252;9.830;2023-05-10T07:41:11;1.45;;;0.80;;
44832;SDS011;30569;51.252;9.830;2023-05-10T07:43:37;1.70;;;0.88;;
44832;SDS011;30569;51.252;9.830;2023-05-10T07:46:03;3.85;;;0.95;;
44832;SDS011;30569;51.252;9.830;2023-05-10T07:48:29;2.58;;;0.90;;
44832;SDS011;30569;51.252;9.830;2023-05-10T07:50:55;2.08;;;0.93;;
44832;SDS011;30569;51.252;9.830;2023-05-10T07:53:21;2.20;;;1.00;;
44832;SDS011;30569;51.252;9.830;2023-05-10T07:55:50;3.50;;;1.00;;
44832;SDS011;30569;51.252;9.830;2023-05-10T07:58:19;3.60;;;0.90;;
44832;SDS011;30569;51.252;9.830;2023-05-10T08:00:45;1.83;;;0.90;;
44832;SDS011;30569;51.252;9.830;2023-05-10T08:03:11;2.60;;;1.10;;
44832;SDS011;30569;51.252;9.830;2023-05-10T08:05:37;2.95;;;1.10;;
44832;SDS011;30569;51.252;9.830;2023-05-10T08:08:02;2.00;;;1.00;;
44832;SDS011;30569;51.252;9.830;2023-05-10T08:10:28;3.47;;;1.02;;
44832;SDS011;30569;51.252;9.830;2023-05-10T08:12:54;4.18;;;1.00;;
44832;SDS011;30569;51.252;9.830;2023-05-10T08:15:20;4.03;;;1.10;;
44832;SDS011;30569;51.252;9.830;2023-05-10T08:17:46;1.75;;;0.80;;
44832;SDS011;30569;51.252;9.830;2023-05-10T08:20:13;1.42;;;0.70;;
44832;SDS011;30569;51.252;9.830;2023-05-10T08:22:41;1.73;;;0.90;;
44832;SDS011;30569;51.252;9.830;2023-05-10T08:25:07;2.45;;;0.80;;
44832;SDS011;30569;51.252;9.830;2023-05-10T08:27:33;2.05;;;0.80;;
44832;SDS011;30569;51.252;9.830;2023-05-10T08:29:59;2.78;;;1.00;;
44832;SDS011;30569;51.252;9.830;2023-05-10T08:32:25;1.10;;;0.70;;
44832;SDS011;30569;51.252;9.830;2023-05-10T08:34:50;2.55;;;0.80;;
44832;SDS011;30569;51.252;9.830;2023-05-10T08:37:16;1.85;;;0.90;;
44832;SDS011;30569;51.252;9.830;2023-05-10T08:39:42;1.33;;;0.70;;
44832;SDS011;30569;51.252;9.830;2023-05-10T08:42:08;1.73;;;0.85;;
44832;SDS011;30569;51.252;9.830;2023-05-10T08:44:35;1.95;;;0.82;;
44832;SDS011;30569;51.252;9.830;2023-05-10T08:47:04;2.25;;;1.10;;
44832;SDS011;30569;51.252;9.830;2023-05-10T08:49:33;3.42;;;0.90;;
44832;SDS011;30569;51.252;9.830;2023-05-10T08:52:00;2.70;;;0.90;;
44832;SDS011;30569;51.252;9.830;2023-05-10T08:54:29;3.15;;;1.30;;
44832;SDS011;30569;51.252;9.830;2023-05-10T08:56:55;3.90;;;1.52;;
44832;SDS011;30569;51.252;9.830;2023-05-10T08:59:21;2.60;;;1.10;;
44832;SDS011;30569;51.252;9.830;2023-05-10T09:01:47;4.00;;;1.00;;
44832;SDS011;30569;51.252;9.830;2023-05-10T09:04:14;5.38;;;1.35;;
44832;SDS011;30569;51.252;9.830;2023-05-10T09:06:39;3.40;;;1.27;;
44832;SDS011;30569;51.252;9.830;2023-05-10T09:09:06;2.72;;;1.00;;
44832;SDS011;30569;51.252;9.830;2023-05-10T09:11:32;3.92;;;1.02;;
44832;SDS011;30569;51.252;9.830;2023-05-10T09:13:58;3.45;;;1.25;;
44832;SDS011;30569;51.252;9.830;2023-05-10T09:16:23;2.25;;;0.90;;
44832;SDS011;30569;51.252;9.830;2023-05-10T09:18:49;2.67;;;1.10;;
44832;SDS011;30569;51.252;9.830;2023-05-10T09:21:15;2.35;;;1.00;;
44832;SDS011;30569;51.252;9.830;2023-05-10T09:23:44;3.28;;;1.00;;
44832;SDS011;30569;51.252;9.830;2023-05-10T09:26:11;4.22;;;1.15;;
44832;SDS011;30569;51.252;9.830;2023-05-10T09:28:50;3.35;;;1.00;;
44832;SDS011;30569;51.252;9.830;2023-05-10T09:31:17;2.45;;;1.00;;
44832;SDS011;30569;51.252;9.830;2023-05-10T09:33:46;2.83;;;0.90;;
44832;SDS011;30569;51.252;9.830;2023-05-10T09:36:13;2.63;;;0.95;;
44832;SDS011;30569;51.252;9.830;2023-05-10T09:38:49;2.25;;;0.82;;
44832;SDS011;30569;51.252;9.830;2023-05-10T09:41:23;2.72;;;1.17;;
44832;SDS011;30569;51.252;9.830;2023-05-10T09:43:49;2.25;;;1.00;;
44832;SDS011;30569;51.252;9.830;2023-05-10T09:46:20;2.63;;;1.05;;
44832;SDS011;30569;51.252;9.830;2023-05-10T09:48:46;3.10;;;1.10;;
44832;SDS011;30569;51.252;9.830;2023-05-10T09:51:19;3.55;;;1.20;;
44832;SDS011;30569;51.252;9.830;2023-05-10T09:53:45;8.27;;;1.45;;
44832;SDS011;30569;51.252;9.830;2023-05-10T09:56:11;5.57;;;1.10;;
44832;SDS011;30569;51.252;9.830;2023-05-10T09:58:36;4.63;;;1.17;;
44832;SDS011;30569;51.252;9.830;2023-05-10T10:01:05;2.95;;;1.20;;
44832;SDS011;30569;51.252;9.830;2023-05-10T10:03:40;2.38;;;1.00;;
44832;SDS011;30569;51.252;9.830;2023-05-10T10:06:07;2.03;;;0.98;;
44832;SDS011;30569;51.252;9.830;2023-05-10T10:08:33;3.08;;;1.30;;
44832;SDS011;30569;51.252;9.830;2023-05-10T10:11:00;3.20;;;1.40;;
44832;SDS011;30569;51.252;9.830;2023-05-10T10:13:26;3.58;;;1.50;;
44832;SDS011;30569;51.252;9.830;2023-05-10T10:15:52;3.35;;;1.27;;
44832;SDS011;30569;51.252;9.830;2023-05-10T10:18:19;4.70;;;1.27;;
44832;SDS011;30569;51.252;9.830;2023-05-10T10:20:51;3.03;;;1.20;;
44832;SDS011;30569;51.252;9.830;2023-05-10T10:23:19;3.70;;;1.40;;
44832;SDS011;30569;51.252;9.830;2023-05-10T10:25:44;3.45;;;1.40;;
44832;SDS011;30569;51.252;9.830;2023-05-10T10:28:18;3.00;;;1.38;;
44832;SDS011;30569;51.252;9.830;2023-05-10T10:30:48;3.38;;;1.40;;
44832;SDS011;30569;51.252;9.830;2023-05-10T10:33:30;2.65;;;1.13;;
44832;SDS011;30569;51.252;9.830;2023-05-10T10:36:17;3.28;;;1.30;;
44832;SDS011;30569;51.252;9.830;2023-05-10T10:49:34;3.55;;;1.42;;
44832;SDS011;30569;51.252;9.830;2023-05-10T10:52:15;5.53;;;1.60;;
44832;SDS011;30569;51.252;9.830;2023-05-10T10:54:53;3.45;;;1.40;;
44832;SDS011;30569;51.252;9.830;2023-05-10T10:57:23;4.85;;;1.95;;
44832;SDS011;30569;51.252;9.830;2023-05-10T11:00:38;2.90;;;1.30;;
44832;SDS011;30569;51.252;9.830;2023-05-10T11:02:48;4.07;;;1.50;;
44832;SDS011;30569;51.252;9.830;2023-05-10T11:07:54;3.70;;;1.67;;
44832;SDS011;30569;51.252;9.830;2023-05-10T11:10:21;3.92;;;1.75;;
44832;SDS011;30569;51.252;9.830;2023-05-10T11:13:03;5.15;;;2.00;;
44832;SDS011;30569;51.252;9.830;2023-05-10T11:18:00;6.10;;;1.70;;
44832;SDS011;30569;51.252;9.830;2023-05-10T11:20:52;3.63;;;1.60;;
44832;SDS011;30569;51.252;9.830;2023-05-10T11:23:23;3.67;;;1.58;;
44832;SDS011;30569;51.252;9.830;2023-05-10T11:25:48;3.58;;;1.52;;
44832;SDS011;30569;51.252;9.830;2023-05-10T11:28:16;4.05;;;1.70;;
44832;SDS011;30569;51.252;9.830;2023-05-10T11:30:43;4.55;;;1.80;;
44832;SDS011;30569;51.252;9.830;2023-05-10T11:33:11;3.85;;;1.70;;
44832;SDS011;30569;51.252;9.830;2023-05-10T11:35:41;3.92;;;1.48;;
44832;SDS011;30569;51.252;9.830;2023-05-10T11:38:07;3.30;;;1.50;;
44832;SDS011;30569;51.252;9.830;2023-05-10T11:40:34;8.98;;;1.88;;
44832;SDS011;30569;51.252;9.830;2023-05-10T11:43:01;3.33;;;1.40;;
44832;SDS011;30569;51.252;9.830;2023-05-10T11:45:28;4.75;;;1.58;;
44832;SDS011;30569;51.252;9.830;2023-05-10T11:47:55;4.28;;;1.50;;
44832;SDS011;30569;51.252;9.830;2023-05-10T11:50:21;4.88;;;1.90;;
44832;SDS011;30569;51.252;9.830;2023-05-10T11:52:54;3.75;;;1.80;;
44832;SDS011;30569;51.252;9.830;2023-05-10T11:57:47;6.38;;;1.85;;
44832;SDS011;30569;51.252;9.830;2023-05-10T12:00:16;3.13;;;1.30;;
44832;SDS011;30569;51.252;9.830;2023-05-10T12:02:42;4.75;;;1.60;;
44832;SDS011;30569;51.252;9.830;2023-05-10T12:05:08;4.78;;;1.70;;
44832;SDS011;30569;51.252;9.830;2023-05-10T12:07:35;3.95;;;1.70;;
44832;SDS011;30569;51.252;9.830;2023-05-10T12:10:07;4.57;;;1.75;;
44832;SDS011;30569;51.252;9.830;2023-05-10T12:12:44;3.60;;;1.60;;
44832;SDS011;30569;51.252;9.830;2023-05-10T12:15:20;4.90;;;1.80;;
44832;SDS011;30569;51.252;9.830;2023-05-10T12:17:47;6.28;;;2.08;;
44832;SDS011;30569;51.252;9.830;2023-05-10T12:20:23;3.70;;;1.75;;
44832;SDS011;30569;51.252;9.830;2023-05-10T12:25:17;4.43;;;1.75;;
44832;SDS011;30569;51.252;9.830;2023-05-10T12:27:56;4.60;;;1.98;;
44832;SDS011;30569;51.252;9.830;2023-05-10T12:30:26;4.70;;;1.90;;
44832;SDS011;30569;51.252;9.830;2023-05-10T12:32:53;4.43;;;2.03;;
44832;SDS011;30569;51.252;9.830;2023-05-10T12:35:23;4.60;;;2.08;;
44832;SDS011;30569;51.252;9.830;2023-05-10T12:37:52;4.65;;;2.40;;
44832;SDS011;30569;51.252;9.830;2023-05-10T12:40:18;5.07;;;2.00;;
44832;SDS011;30569;51.252;9.830;2023-05-10T12:42:44;4.18;;;1.95;;
44832;SDS011;30569;51.252;9.830;2023-05-10T12:45:10;4.43;;;1.80;;
44832;SDS011;30569;51.252;9.830;2023-05-10T12:47:36;4.90;;;2.20;;
44832;SDS011;30569;51.252;9.830;2023-05-10T12:50:02;6.30;;;1.90;;
44832;SDS011;30569;51.252;9.830;2023-05-10T12:52:29;6.72;;;2.00;;
44832;SDS011;30569;51.252;9.830;2023-05-10T12:54:56;6.93;;;1.92;;
44832;SDS011;30569;51.252;9.830;2023-05-10T12:57:22;6.00;;;2.00;;
44832;SDS011;30569;51.252;9.830;2023-05-10T12:59:48;6.30;;;2.13;;
44832;SDS011;30569;51.252;9.830;2023-05-10T13:02:15;6.22;;;2.00;;
44832;SDS011;30569;51.252;9.830;2023-05-10T13:04:42;4.90;;;2.00;;
44832;SDS011;30569;51.252;9.830;2023-05-10T13:07:09;4.68;;;2.33;;
44832;SDS011;30569;51.252;9.830;2023-05-10T13:09:34;4.20;;;2.08;;
44832;SDS011;30569;51.252;9.830;2023-05-10T13:12:00;4.85;;;2.10;;
44832;SDS011;30569;51.252;9.830;2023-05-10T13:14:28;4.32;;;2.15;;
44832;SDS011;30569;51.252;9.830;2023-05-10T13:16:54;4.20;;;2.20;;
44832;SDS011;30569;51.252;9.830;2023-05-10T13:19:20;7.82;;;2.25;;
44832;SDS011;30569;51.252;9.830;2023-05-10T13:21:46;3.88;;;1.67;;
44832;SDS011;30569;51.252;9.830;2023-05-10T13:24:12;4.22;;;1.88;;
44832;SDS011;30569;51.252;9.830;2023-05-10T13:26:42;4.45;;;2.28;;
44832;SDS011;30569;51.252;9.830;2023-05-10T13:29:08;6.45;;;2.22;;
44832;SDS011;30569;51.252;9.830;2023-05-10T13:31:34;4.65;;;2.80;;
44832;SDS011;30569;51.252;9.830;2023-05-10T13:34:01;7.00;;;2.95;;
44832;SDS011;30569;51.252;9.830;2023-05-10T13:36:27;6.57;;;2.50;;
44832;SDS011;30569;51.252;9.830;2023-05-10T13:38:54;4.40;;;2.22;;
44832;SDS011;30569;51.252;9.830;2023-05-10T13:41:20;4.32;;;2.30;;
44832;SDS011;30569;51.252;9.830;2023-05-10T13:43:45;6.28;;;2.80;;
44832;SDS011;30569;51.252;9.830;2023-05-10T13:46:13;6.82;;;2.22;;
44832;SDS011;30569;51.252;9.830;2023-05-10T13:48:39;8.20;;;2.00;;
44832;SDS011;30569;51.252;9.830;2023-05-10T13:51:04;4.85;;;2.75;;
44832;SDS011;30569;51.252;9.830;2023-05-10T13:53:32;6.07;;;2.53;;
44832;SDS011;30569;51.252;9.830;2023-05-10T13:55:58;4.78;;;2.50;;
44832;SDS011;30569;51.252;9.830;2023-05-10T13:58:24;5.93;;;3.08;;
44832;SDS011;30569;51.252;9.830;2023-05-10T14:00:50;6.15;;;2.92;;
44832;SDS011;30569;51.252;9.830;2023-05-10T14:03:16;5.00;;;2.70;;
44832;SDS011;30569;51.252;9.830;2023-05-10T14:05:42;5.78;;;2.70;;
44832;SDS011;30569;51.252;9.830;2023-05-10T14:08:08;6.50;;;2.50;;
44832;SDS011;30569;51.252;9.830;2023-05-10T14:10:34;5.47;;;3.33;;
44832;SDS011;30569;51.252;9.830;2023-05-10T14:13:00;5.35;;;2.28;;
44832;SDS011;30569;51.252;9.830;2023-05-10T14:15:28;4.72;;;2.75;;
44832;SDS011;30569;51.252;9.830;2023-05-10T14:17:54;5.57;;;2.67;;
44832;SDS011;30569;51.252;9.830;2023-05-10T14:20:20;6.20;;;2.92;;
44832;SDS011;30569;51.252;9.830;2023-05-10T14:22:46;5.72;;;2.30;;
44832;SDS011;30569;51.252;9.830;2023-05-10T14:25:12;4.50;;;2.25;;
44832;SDS011;30569;51.252;9.830;2023-05-10T14:27:39;5.75;;;2.67;;
44832;SDS011;30569;51.252;9.830;2023-05-10T14:30:05;5.47;;;2.65;;
44832;SDS011;30569;51.252;9.830;2023-05-10T14:32:31;5.32;;;2.40;;
44832;SDS011;30569;51.252;9.830;2023-05-10T14:34:57;4.97;;;2.45;;
44832;SDS011;30569;51.252;9.830;2023-05-10T14:37:23;4.63;;;2.30;;
44832;SDS011;30569;51.252;9.830;2023-05-10T14:39:48;6.50;;;2.70;;
44832;SDS011;30569;51.252;9.830;2023-05-10T14:42:14;5.80;;;2.50;;
44832;SDS011;30569;51.252;9.830;2023-05-10T14:44:41;4.57;;;2.53;;
44832;SDS011;30569;51.252;9.830;2023-05-10T14:47:06;7.95;;;2.65;;
44832;SDS011;30569;51.252;9.830;2023-05-10T14:49:32;5.95;;;2.50;;
44832;SDS011;30569;51.252;9.830;2023-05-10T14:51:58;5.60;;;2.67;;
44832;SDS011;30569;51.252;9.830;2023-05-10T14:54:24;5.18;;;2.75;;
44832;SDS011;30569;51.252;9.830;2023-05-10T14:56:50;5.75;;;2.63;;
44832;SDS011;30569;51.252;9.830;2023-05-10T14:59:16;7.22;;;2.88;;
44832;SDS011;30569;51.252;9.830;2023-05-10T15:01:42;8.23;;;3.90;;
44832;SDS011;30569;51.252;9.830;2023-05-10T15:04:09;6.43;;;3.40;;
44832;SDS011;30569;51.252;9.830;2023-05-10T15:06:35;7.18;;;2.05;;
44832;SDS011;30569;51.252;9.830;2023-05-10T15:09:01;6.13;;;2.53;;
44832;SDS011;30569;51.252;9.830;2023-05-10T15:11:28;5.18;;;2.72;;
44832;SDS011;30569;51.252;9.830;2023-05-10T15:13:54;7.43;;;2.50;;
44832;SDS011;30569;51.252;9.830;2023-05-10T15:16:20;6.88;;;2.38;;
44832;SDS011;30569;51.252;9.830;2023-05-10T15:18:46;4.28;;;2.03;;
44832;SDS011;30569;51.252;9.830;2023-05-10T15:21:11;9.25;;;2.45;;